Date,TemperatureHighF,TemperatureAvgF,TemperatureLowF,DewpointHighF,DewpointAvgF,DewpointLowF,HumidityHigh,HumidityAvg,HumidityLow,PressureMaxIn,PressureMinIn,WindSpeedMaxMPH,WindSpeedAvgMPH,GustSpeedMaxMPH,PrecipitationSumIn
2013-6-1,97.0,84.0,75.7,75.4,72.8,71.5,89,71,46,29.75,29.63,4,1,11,0.00
2013-6-2,90.1,77.7,67.5,73.4,66.2,61.2,98,71,39,29.92,29.75,5,1,11,0.18
2013-6-3,95.9,78.2,61.9,69.7,64.2,58.5,98,66,34,29.85,29.67,2,0,6,0.00
2013-6-4,96.8,82.1,69.4,70.2,67.4,64.5,95,64,37,29.75,29.63,3,1,7,0.00
2013-6-5,97.2,82.2,70.0,71.4,68.2,65.2,93,65,39,29.75,29.59,2,1,8,0.00
2013-6-6,96.8,82.5,70.5,72.5,67.7,62.7,94,64,39,29.79,29.62,5,1,13,0.00
2013-6-7,88.3,76.7,67.6,66.7,61.2,55.1,89,62,35,29.86,29.72,3,1,8,0.00
2013-6-8,93.9,78.3,60.8,70.0,63.3,55.1,91,62,41,29.79,29.63,3,1,7,0.00
2013-6-9,91.4,79.4,67.1,74.6,71.8,65.4,99,79,55,29.83,29.69,8,1,15,0.51
2013-6-10,98.1,82.0,68.2,74.5,70.3,64.3,99,71,36,29.85,29.74,4,0,8,0.00
2013-6-11,96.6,83.0,73.2,74.8,71.4,63.7,96,71,44,29.88,29.78,5,1,10,0.00
2013-6-12,97.9,83.5,73.4,77.1,72.5,70.0,96,72,42,29.91,29.78,2,1,9,0.00
2013-6-13,97.9,82.6,73.0,76.7,71.9,65.5,97,72,43,29.92,29.78,4,1,8,0.00
2013-6-14,86.9,78.1,72.1,75.8,73.6,69.7,95,87,65,29.93,29.79,1,0,4,0.00
2013-6-15,88.0,81.3,75.7,76.6,74.1,72.4,95,80,61,29.99,29.88,2,0,6,0.00
2013-6-16,98.8,85.4,73.6,75.1,71.5,66.1,96,66,40,30.01,29.87,3,1,12,0.00
2013-6-17,100.4,85.9,76.1,74.8,71.3,65.0,88,65,36,29.99,29.82,4,1,12,0.00
2013-6-18,95.0,81.1,69.8,77.4,72.6,68.4,98,77,51,30.02,29.85,3,1,7,0.24
2013-6-19,99.5,85.2,73.0,75.7,71.6,67.8,97,67,42,29.96,29.87,3,1,10,0.00
2013-6-20,98.1,85.4,74.7,73.2,69.9,64.7,91,62,36,30.04,29.92,4,1,11,0.00
2013-6-21,99.5,85.9,74.3,74.4,69.3,61.8,93,61,33,30.07,29.94,4,1,11,0.00
2013-6-22,100.0,86.1,73.6,74.3,69.2,63.9,94,61,34,30.05,29.87,4,1,115,0.00
2013-6-23,95.5,84.8,74.8,74.0,68.5,60.7,91,61,36,29.99,29.88,3,1,10,0.00
2013-6-24,101.1,85.8,75.2,73.5,70.3,64.6,89,63,37,30.03,29.88,4,1,11,0.00
2013-6-25,102.6,87.4,76.8,73.8,69.7,63.5,88,59,33,30.00,29.84,4,2,14,0.00
2013-6-26,104.4,87.9,76.5,73.4,70.2,64.7,85,59,34,29.97,29.85,4,1,11,0.00
2013-6-27,105.6,88.4,75.6,72.7,67.8,59.0,86,55,23,30.04,29.89,3,1,8,0.00
2013-6-28,108.0,91.5,74.1,73.1,66.8,62.7,86,47,24,29.96,29.76,4,1,8,0.00
2013-6-29,109.4,91.7,73.2,72.5,64.4,51.6,78,46,15,29.85,29.69,5,1,9,0.00
2013-6-30,97.3,83.7,71.1,71.9,66.9,59.2,93,59,38,29.94,29.78,5,1,10,0.05